createdAt,value
2018-05-31T00:00:26.140Z,100771
2018-05-31T00:02:54.375Z,100776
2018-05-31T00:05:22.566Z,100767
2018-05-31T00:07:50.719Z,100768
2018-05-31T00:10:18.889Z,100767
2018-05-31T00:12:47.063Z,100780
2018-05-31T00:15:15.264Z,100778
2018-05-31T00:17:43.470Z,100784
2018-05-31T00:20:11.634Z,100780
2018-05-31T00:22:39.825Z,100769
2018-05-31T00:25:08.814Z,100765
2018-05-31T00:27:36.958Z,100763
2018-05-31T00:30:05.134Z,100757
2018-05-31T00:32:33.340Z,100745
2018-05-31T00:35:01.523Z,100744
2018-05-31T00:37:30.476Z,100737
2018-05-31T00:39:58.676Z,100737
2018-05-31T00:42:26.843Z,100736
2018-05-31T00:44:55.017Z,100724
2018-05-31T00:47:23.184Z,100720
2018-05-31T00:49:51.347Z,100722
2018-05-31T00:52:19.515Z,100724
2018-05-31T00:54:47.698Z,100717
2018-05-31T00:57:15.882Z,100730
2018-05-31T00:59:44.057Z,100726
2018-05-31T01:02:12.238Z,100725
2018-05-31T01:04:41.323Z,100731
2018-05-31T01:07:09.535Z,100731
2018-05-31T01:09:37.732Z,100727
2018-05-31T01:12:05.924Z,100731
2018-05-31T01:14:34.896Z,100737
2018-05-31T01:17:03.066Z,100725
2018-05-31T01:19:31.272Z,100724
2018-05-31T01:21:59.448Z,100724
2018-05-31T01:24:27.639Z,100734
2018-05-31T01:26:55.798Z,100733
2018-05-31T01:29:24.035Z,100733
2018-05-31T01:31:52.199Z,100734
2018-05-31T01:34:20.374Z,100730
2018-05-31T01:36:48.554Z,100730
2018-05-31T01:39:18.667Z,100728
2018-05-31T01:41:46.836Z,100724
2018-05-31T01:44:15.028Z,100727
2018-05-31T01:46:43.199Z,100724
2018-05-31T01:49:11.409Z,100727
2018-05-31T01:51:40.434Z,100727
2018-05-31T01:54:08.598Z,100719
2018-05-31T01:56:37.516Z,100718
2018-05-31T01:59:05.755Z,100716
2018-05-31T02:01:33.913Z,100716
2018-05-31T02:04:02.096Z,100714
2018-05-31T02:06:31.014Z,100723
2018-05-31T02:08:59.209Z,100724
2018-05-31T02:11:27.389Z,100721
2018-05-31T02:13:55.565Z,100734
2018-05-31T02:16:23.736Z,100726
2018-05-31T02:18:51.904Z,100722
2018-05-31T02:21:20.059Z,100722
2018-05-31T02:23:48.231Z,100727
2018-05-31T02:26:16.405Z,100731
2018-05-31T02:28:44.573Z,100728
2018-05-31T02:31:12.752Z,100726
2018-05-31T02:33:40.907Z,100732
2018-05-31T02:36:09.836Z,100738
2018-05-31T02:38:37.989Z,100740
2018-05-31T02:41:06.156Z,100730
2018-05-31T02:43:34.326Z,100733
2018-05-31T02:46:02.485Z,100733
2018-05-31T02:48:30.658Z,100735
2018-05-31T02:50:58.848Z,100737
2018-05-31T02:53:27.036Z,100737
2018-05-31T02:55:55.215Z,100743
2018-05-31T02:58:23.389Z,100746
2018-05-31T03:00:51.718Z,100747
2018-05-31T03:03:20.642Z,100749
2018-05-31T03:05:48.807Z,100748
2018-05-31T03:08:16.962Z,100752
2018-05-31T03:10:45.137Z,100754
2018-05-31T03:13:13.295Z,100752
2018-05-31T03:15:42.243Z,100751
2018-05-31T03:18:10.392Z,100759
2018-05-31T03:20:38.562Z,100758
2018-05-31T03:23:06.714Z,100753
2018-05-31T03:25:35.672Z,100750
2018-05-31T03:28:03.827Z,100767
2018-05-31T03:30:32.011Z,100759
2018-05-31T03:33:00.204Z,100765
2018-05-31T03:35:29.152Z,100775
2018-05-31T03:37:57.326Z,100779
2018-05-31T03:40:25.499Z,100777
2018-05-31T03:42:53.745Z,100779
2018-05-31T03:45:22.046Z,100780
2018-05-31T03:47:50.198Z,100785
2018-05-31T03:50:18.369Z,100779
2018-05-31T03:52:46.538Z,100775
2018-05-31T03:55:14.720Z,100772
2018-05-31T03:57:42.894Z,100769
2018-05-31T04:00:11.074Z,100758
2018-05-31T04:02:39.344Z,100763
2018-05-31T04:05:07.529Z,100762
2018-05-31T04:07:35.694Z,100777
2018-05-31T04:10:03.989Z,100769
2018-05-31T04:12:32.198Z,100749
2018-05-31T04:15:01.149Z,100756
2018-05-31T04:17:29.342Z,100767
2018-05-31T04:19:57.543Z,100761
2018-05-31T04:22:26.516Z,100769
2018-05-31T04:24:54.697Z,100766
2018-05-31T04:27:22.850Z,100755
2018-05-31T04:29:51.037Z,100761
2018-05-31T04:32:19.191Z,100758
2018-05-31T04:34:47.376Z,100756
2018-05-31T04:37:15.539Z,100763
2018-05-31T04:39:43.804Z,100772
2018-05-31T04:42:11.988Z,100764
2018-05-31T04:44:40.186Z,100760
2018-05-31T04:47:09.133Z,100766
2018-05-31T04:49:37.364Z,100757
2018-05-31T04:52:06.292Z,100757
2018-05-31T04:54:34.494Z,100759
2018-05-31T04:57:02.668Z,100756
2018-05-31T04:59:30.877Z,100758
2018-05-31T05:01:59.831Z,100756
2018-05-31T05:04:28.033Z,100762
2018-05-31T05:06:56.981Z,100766
2018-05-31T05:09:25.180Z,100761
2018-05-31T05:11:53.349Z,100768
2018-05-31T05:14:22.187Z,100760
2018-05-31T05:16:50.362Z,100760
2018-05-31T05:19:18.611Z,100766
2018-05-31T05:21:47.589Z,100775
2018-05-31T05:24:15.895Z,100774
2018-05-31T05:26:44.080Z,100775
2018-05-31T05:29:12.276Z,100781
2018-05-31T05:31:40.435Z,100784
2018-05-31T05:34:08.622Z,100777
2018-05-31T05:36:36.790Z,100776
2018-05-31T05:39:05.864Z,100782
2018-05-31T05:41:34.124Z,100778
2018-05-31T05:44:02.317Z,100780
2018-05-31T05:46:30.497Z,100782
2018-05-31T05:48:58.871Z,100774
2018-05-31T05:51:27.070Z,100778
2018-05-31T05:53:55.602Z,100779
2018-05-31T05:56:23.877Z,100783
2018-05-31T05:58:52.039Z,100785
2018-05-31T06:01:20.226Z,100790
2018-05-31T06:03:48.393Z,100791
2018-05-31T06:06:17.337Z,100789
2018-05-31T06:08:48.560Z,100793
2018-05-31T06:11:16.759Z,100787
2018-05-31T06:13:45.827Z,100795
2018-05-31T06:16:14.861Z,100797
2018-05-31T06:18:43.136Z,100808
2018-05-31T06:21:11.325Z,100809
2018-05-31T06:23:39.508Z,100805
2018-05-31T06:26:08.456Z,100802
2018-05-31T06:28:36.637Z,100812
2018-05-31T06:31:04.810Z,100809
2018-05-31T06:33:32.990Z,100819
2018-05-31T06:36:01.381Z,100812
2018-05-31T06:38:30.480Z,100808
2018-05-31T06:40:58.677Z,100807
2018-05-31T06:43:27.783Z,100802
2018-05-31T06:45:55.994Z,100808
2018-05-31T06:48:24.144Z,100806
2018-05-31T06:50:52.340Z,100812
2018-05-31T06:53:20.500Z,100813
2018-05-31T06:55:49.039Z,100808
2018-05-31T06:58:17.233Z,100814
2018-05-31T07:00:45.463Z,100815
2018-05-31T07:03:13.581Z,100819
2018-05-31T07:05:41.781Z,100817
2018-05-31T07:08:10.009Z,100814
2018-05-31T07:10:38.934Z,100816
2018-05-31T07:13:07.101Z,100814
2018-05-31T07:15:35.412Z,100814
2018-05-31T07:18:03.627Z,100823
2018-05-31T07:20:32.573Z,100822
2018-05-31T07:23:00.777Z,100821
2018-05-31T07:25:29.734Z,100821
2018-05-31T07:27:57.895Z,100818
2018-05-31T07:30:26.060Z,100820
2018-05-31T07:32:54.292Z,100818
2018-05-31T07:35:22.470Z,100815
2018-05-31T07:37:50.648Z,100823
2018-05-31T07:40:18.822Z,100825
2018-05-31T07:42:47.760Z,100825
2018-05-31T07:45:15.981Z,100821
2018-05-31T07:47:44.445Z,100820
2018-05-31T07:50:12.657Z,100819
2018-05-31T07:52:40.905Z,100827
2018-05-31T07:55:09.824Z,100815
2018-05-31T07:57:38.002Z,100819
2018-05-31T08:00:06.161Z,100817
2018-05-31T08:02:34.478Z,100826
2018-05-31T08:05:02.689Z,100831
2018-05-31T08:07:30.860Z,100830
2018-05-31T08:09:59.027Z,100830
2018-05-31T08:12:27.266Z,100827
2018-05-31T08:14:55.447Z,100824
2018-05-31T08:17:23.656Z,100825
2018-05-31T08:19:51.832Z,100826
2018-05-31T08:22:19.986Z,100826
2018-05-31T08:24:48.257Z,100827
2018-05-31T08:27:16.421Z,100834
2018-05-31T08:29:44.686Z,100837
2018-05-31T08:32:12.891Z,100835
2018-05-31T08:34:41.084Z,100834
2018-05-31T08:37:10.017Z,100844
2018-05-31T08:39:38.201Z,100828
2018-05-31T08:42:06.409Z,100838
2018-05-31T08:44:34.602Z,100833
2018-05-31T08:47:02.891Z,100833
2018-05-31T08:49:31.068Z,100836
2018-05-31T08:51:59.216Z,100844
2018-05-31T08:54:28.155Z,100836
2018-05-31T08:56:56.385Z,100834
2018-05-31T08:59:24.586Z,100838
2018-05-31T09:01:52.918Z,100832
2018-05-31T09:04:21.278Z,100833
2018-05-31T09:06:50.207Z,100838
2018-05-31T09:09:18.431Z,100844
2018-05-31T09:11:46.600Z,100839
2018-05-31T09:14:14.762Z,100844
2018-05-31T09:16:43.068Z,100836
2018-05-31T09:19:11.215Z,100832
2018-05-31T09:21:39.619Z,100829
2018-05-31T09:24:07.793Z,100804
2018-05-31T09:26:36.053Z,100825
2018-05-31T09:29:04.242Z,100820
2018-05-31T09:31:32.528Z,100822
2018-05-31T09:34:00.808Z,100822
2018-05-31T09:36:29.015Z,100830
2018-05-31T09:38:57.316Z,100818
2018-05-31T09:41:25.590Z,100817
2018-05-31T09:43:53.765Z,100822
2018-05-31T09:46:21.952Z,100818
2018-05-31T09:48:50.148Z,100831
2018-05-31T09:51:18.341Z,100833
2018-05-31T09:53:47.254Z,100821
2018-05-31T09:56:15.428Z,100830
2018-05-31T09:58:43.576Z,100819
2018-05-31T10:01:12.594Z,100821
2018-05-31T10:03:40.745Z,100820
2018-05-31T10:06:08.921Z,100817
2018-05-31T10:08:37.136Z,100816
2018-05-31T10:11:05.306Z,100819
2018-05-31T10:13:33.512Z,100825
2018-05-31T10:16:01.774Z,100814
2018-05-31T10:18:29.921Z,100811
2018-05-31T10:20:58.081Z,100820
2018-05-31T10:23:26.236Z,100814
2018-05-31T10:25:54.389Z,100810
2018-05-31T10:28:22.609Z,100812
2018-05-31T10:30:51.530Z,100804
2018-05-31T10:33:19.761Z,100807
2018-05-31T10:35:48.008Z,100805
2018-05-31T10:38:16.993Z,100806
2018-05-31T10:40:45.238Z,100794
2018-05-31T10:43:13.398Z,100793
2018-05-31T10:45:41.688Z,100796
2018-05-31T10:48:09.972Z,100798
2018-05-31T10:50:39.102Z,100796
2018-05-31T10:53:07.333Z,100806
2018-05-31T10:55:35.515Z,100793
2018-05-31T10:58:03.682Z,100797
2018-05-31T11:00:31.872Z,100797
2018-05-31T11:03:00.021Z,100792
2018-05-31T11:05:28.260Z,100790
2018-05-31T11:07:56.434Z,100783
2018-05-31T11:10:24.663Z,100791
2018-05-31T11:12:52.843Z,100783
2018-05-31T11:15:21.900Z,100782
2018-05-31T11:17:50.241Z,100780
2018-05-31T11:20:18.428Z,100790
2018-05-31T11:22:47.126Z,100783
2018-05-31T11:25:15.303Z,100775
2018-05-31T11:27:44.057Z,100778
2018-05-31T11:30:13.261Z,100777
2018-05-31T11:32:41.429Z,100772
2018-05-31T11:35:09.730Z,100761
2018-05-31T11:37:37.931Z,100765
2018-05-31T11:40:06.133Z,100768
2018-05-31T11:42:34.297Z,100758
2018-05-31T11:45:03.227Z,100757
2018-05-31T11:47:31.427Z,100757
2018-05-31T11:49:59.601Z,100750
2018-05-31T11:52:27.759Z,100745
2018-05-31T11:54:55.938Z,100742
2018-05-31T11:57:24.186Z,100743
2018-05-31T11:59:52.372Z,100743
2018-05-31T12:02:23.199Z,100741
2018-05-31T12:04:51.398Z,100736
2018-05-31T12:07:19.888Z,100731
2018-05-31T12:09:48.074Z,100740
2018-05-31T12:12:16.267Z,100738
2018-05-31T12:14:44.437Z,100722
2018-05-31T12:17:12.589Z,100732
2018-05-31T12:19:40.743Z,100730
2018-05-31T12:22:08.920Z,100725
2018-05-31T12:24:37.077Z,100730
2018-05-31T12:27:05.251Z,100733
2018-05-31T12:29:33.386Z,100727
2018-05-31T12:32:02.311Z,100729
2018-05-31T12:34:30.513Z,100726
2018-05-31T12:36:58.684Z,100716
2018-05-31T12:39:26.862Z,100716
2018-05-31T12:41:55.015Z,100717
2018-05-31T12:44:23.201Z,100713
2018-05-31T12:46:51.350Z,100728
2018-05-31T12:49:19.544Z,100719
2018-05-31T12:51:47.686Z,100715
2018-05-31T12:54:15.867Z,100713
2018-05-31T12:56:44.004Z,100716
2018-05-31T12:59:13.575Z,100714
2018-05-31T13:01:41.753Z,100714
2018-05-31T13:04:09.918Z,100717
2018-05-31T13:06:38.221Z,100720
2018-05-31T13:09:06.384Z,100716
2018-05-31T13:11:34.527Z,100717
2018-05-31T13:14:02.705Z,100723
2018-05-31T13:16:30.866Z,100724
2018-05-31T13:18:59.025Z,100712
2018-05-31T13:21:27.193Z,100706
2018-05-31T13:23:55.347Z,100712
2018-05-31T13:26:24.302Z,100706
2018-05-31T13:28:52.515Z,100701
2018-05-31T13:31:21.459Z,100720
2018-05-31T13:33:49.680Z,100711
2018-05-31T13:36:18.190Z,100715
2018-05-31T13:38:46.361Z,100716
2018-05-31T13:41:14.570Z,100705
2018-05-31T13:43:42.722Z,100708
2018-05-31T13:46:10.925Z,100703
2018-05-31T13:48:39.178Z,100705
2018-05-31T13:51:07.270Z,100704
2018-05-31T13:53:35.460Z,100707
2018-05-31T13:56:04.402Z,100706
2018-05-31T13:58:32.621Z,100714
2018-05-31T14:01:00.773Z,100703
2018-05-31T14:03:28.975Z,100702
2018-05-31T14:05:57.190Z,100698
2018-05-31T14:08:25.345Z,100695
2018-05-31T14:10:53.544Z,100692
2018-05-31T14:13:21.714Z,100696
2018-05-31T14:15:50.031Z,100684
2018-05-31T14:18:18.288Z,100686
2018-05-31T14:20:46.599Z,100688
2018-05-31T14:23:15.531Z,100691
2018-05-31T14:25:43.754Z,100697
2018-05-31T14:28:12.019Z,100697
2018-05-31T14:30:40.942Z,100687
2018-05-31T14:33:09.122Z,100682
2018-05-31T14:35:37.315Z,100684
2018-05-31T14:38:05.495Z,100676
2018-05-31T14:40:33.686Z,100674
2018-05-31T14:43:03.650Z,100672
2018-05-31T14:45:31.813Z,100669
2018-05-31T14:48:00.738Z,100669
2018-05-31T14:50:28.950Z,100671
2018-05-31T14:52:57.127Z,100675
2018-05-31T14:55:25.356Z,100674
2018-05-31T14:57:53.815Z,100678
2018-05-31T15:00:22.018Z,100683
2018-05-31T15:02:50.389Z,100681
2018-05-31T15:05:18.578Z,100683
2018-05-31T15:07:46.871Z,100682
2018-05-31T15:10:15.048Z,100686
2018-05-31T15:12:43.229Z,100690
2018-05-31T15:15:11.515Z,100689
2018-05-31T15:17:39.705Z,100685
2018-05-31T15:20:07.879Z,100692
2018-05-31T15:22:36.045Z,100693
2018-05-31T15:25:04.235Z,100691
2018-05-31T15:27:32.397Z,100691
2018-05-31T15:30:01.319Z,100687
2018-05-31T15:32:29.508Z,100678
2018-05-31T15:34:57.764Z,100684
2018-05-31T15:37:25.973Z,100682
2018-05-31T15:39:54.198Z,100688
2018-05-31T15:42:22.371Z,100696
2018-05-31T15:44:50.525Z,100681
2018-05-31T15:47:18.717Z,100681
2018-05-31T15:49:46.903Z,100677
2018-05-31T15:52:15.076Z,100682
2018-05-31T15:54:43.257Z,100675
2018-05-31T15:57:11.422Z,100680
2018-05-31T15:59:40.006Z,100675
2018-05-31T16:02:15.104Z,100684
2018-05-31T16:04:44.136Z,100687
2018-05-31T16:07:12.329Z,100681
2018-05-31T16:09:40.501Z,100676
2018-05-31T16:12:08.688Z,100672
2018-05-31T16:14:36.837Z,100674
2018-05-31T16:17:05.072Z,100671
2018-05-31T16:19:34.068Z,100668
2018-05-31T16:22:02.376Z,100672
2018-05-31T16:24:30.689Z,100674
2018-05-31T16:26:59.763Z,100667
2018-05-31T16:29:28.028Z,100679
2018-05-31T16:31:56.185Z,100692
2018-05-31T16:34:24.377Z,100686
2018-05-31T16:36:52.520Z,100673
2018-05-31T16:39:20.703Z,100674
2018-05-31T16:41:48.961Z,100682
2018-05-31T16:44:17.220Z,100678
2018-05-31T16:46:46.179Z,100681
2018-05-31T16:49:14.350Z,100681
2018-05-31T16:51:42.673Z,100688
2018-05-31T16:54:10.876Z,100687
2018-05-31T16:56:39.226Z,100682
2018-05-31T16:59:07.427Z,100675
2018-05-31T17:01:36.321Z,100675
2018-05-31T17:04:04.494Z,100675
2018-05-31T17:06:32.662Z,100674
2018-05-31T17:09:00.839Z,100672
2018-05-31T17:11:29.112Z,100671
2018-05-31T17:13:57.294Z,100676
2018-05-31T17:16:27.172Z,100666
2018-05-31T17:18:55.366Z,100676
2018-05-31T17:21:23.511Z,100681
2018-05-31T17:23:52.438Z,100685
2018-05-31T17:26:21.018Z,100676
2018-05-31T17:28:49.219Z,100674
2018-05-31T17:31:17.418Z,100676
2018-05-31T17:33:46.611Z,100679
2018-05-31T17:36:14.804Z,100677
2018-05-31T17:38:43.016Z,100677
2018-05-31T17:41:11.151Z,100674
2018-05-31T17:43:39.325Z,100672
2018-05-31T17:46:07.506Z,100683
2018-05-31T17:48:35.665Z,100677
2018-05-31T17:51:03.913Z,100677
2018-05-31T17:53:32.087Z,100678
2018-05-31T17:56:00.245Z,100691
2018-05-31T17:58:28.384Z,100689
2018-05-31T18:00:56.565Z,100687
2018-05-31T18:03:24.746Z,100692
2018-05-31T18:05:52.900Z,100690
2018-05-31T18:08:21.078Z,100701
2018-05-31T18:10:49.304Z,100694
2018-05-31T18:13:17.645Z,100692
2018-05-31T18:15:45.791Z,100689
2018-05-31T18:18:13.939Z,100702
2018-05-31T18:20:42.897Z,100712
2018-05-31T18:23:11.083Z,100710
2018-05-31T18:25:39.233Z,100714
2018-05-31T18:28:07.421Z,100719
2018-05-31T18:30:35.703Z,100719
2018-05-31T18:33:03.868Z,100716
2018-05-31T18:35:32.078Z,100726
2018-05-31T18:38:00.281Z,100732
2018-05-31T18:40:28.519Z,100721
2018-05-31T18:42:56.725Z,100731
2018-05-31T18:45:24.964Z,100723
2018-05-31T18:47:53.283Z,100719
2018-05-31T18:50:21.476Z,100730
2018-05-31T18:52:49.665Z,100734
2018-05-31T18:55:17.875Z,100734
2018-05-31T18:57:46.042Z,100733
2018-05-31T19:00:14.970Z,100731
2018-05-31T19:02:43.149Z,100722
2018-05-31T19:05:11.301Z,100735
2018-05-31T19:07:39.483Z,100743
2018-05-31T19:10:07.660Z,100745
2018-05-31T19:12:42.242Z,100738
2018-05-31T19:15:11.188Z,100740
2018-05-31T19:17:39.356Z,100745
2018-05-31T19:20:07.570Z,100746
2018-05-31T19:22:36.517Z,100753
2018-05-31T19:25:10.140Z,100754
2018-05-31T19:27:38.308Z,100746
2018-05-31T19:30:11.956Z,100756
2018-05-31T19:32:40.129Z,100762
2018-05-31T19:38:11.077Z,100758
2018-05-31T19:40:39.260Z,100762
2018-05-31T19:43:16.426Z,100766
2018-05-31T19:45:45.364Z,100766
2018-05-31T19:48:13.556Z,100773
2018-05-31T19:53:24.409Z,100762
2018-05-31T19:55:53.341Z,100763
2018-05-31T19:58:27.146Z,100766
2018-05-31T20:01:00.919Z,100775
2018-05-31T20:03:29.922Z,100769
2018-05-31T20:05:58.105Z,100770
2018-05-31T20:08:26.273Z,100769
2018-05-31T20:10:54.461Z,100774
2018-05-31T20:13:22.638Z,100789
2018-05-31T20:15:51.481Z,100781
2018-05-31T20:18:19.792Z,100779
2018-05-31T20:20:48.008Z,100783
2018-05-31T20:23:16.255Z,100781
2018-05-31T20:25:44.616Z,100787
2018-05-31T20:28:12.856Z,100782
2018-05-31T20:30:41.276Z,100782
2018-05-31T20:33:09.405Z,100786
2018-05-31T20:35:37.607Z,100787
2018-05-31T20:38:05.776Z,100774
2018-05-31T20:40:33.947Z,100782
2018-05-31T20:43:02.126Z,100782
2018-05-31T20:45:30.296Z,100780
2018-05-31T20:47:58.584Z,100780
2018-05-31T20:50:27.499Z,100776
2018-05-31T20:52:55.672Z,100782
2018-05-31T20:55:23.913Z,100782
2018-05-31T20:57:52.058Z,100786
2018-05-31T21:00:20.299Z,100782
2018-05-31T21:02:49.265Z,100777
2018-05-31T21:05:17.460Z,100775
2018-05-31T21:07:45.829Z,100772
2018-05-31T21:10:14.006Z,100773
2018-05-31T21:12:42.965Z,100782
2018-05-31T21:15:11.165Z,100775
2018-05-31T21:17:39.324Z,100785
2018-05-31T21:20:07.503Z,100780
2018-05-31T21:22:35.672Z,100776
2018-05-31T21:25:03.889Z,100780
2018-05-31T21:27:32.195Z,100773
2018-05-31T21:30:00.541Z,100773
2018-05-31T21:32:30.352Z,100779
2018-05-31T21:34:59.350Z,100769
2018-05-31T21:37:28.328Z,100768
2018-05-31T21:39:57.318Z,100768
2018-05-31T21:42:26.285Z,100773
2018-05-31T21:44:54.550Z,100779
2018-05-31T21:47:22.886Z,100780
2018-05-31T21:49:51.025Z,100782
2018-05-31T21:52:19.225Z,100782
2018-05-31T21:54:47.416Z,100782
2018-05-31T21:57:15.575Z,100779
2018-05-31T21:59:43.736Z,100781
2018-05-31T22:02:12.650Z,100782
2018-05-31T22:04:40.812Z,100782
2018-05-31T22:07:08.997Z,100786
2018-05-31T22:09:37.375Z,100775
2018-05-31T22:12:05.559Z,100779
2018-05-31T22:14:33.994Z,100777
2018-05-31T22:17:02.971Z,100778
2018-05-31T22:19:31.148Z,100781
2018-05-31T22:21:59.359Z,100781
2018-05-31T22:24:27.543Z,100772
2018-05-31T22:26:55.681Z,100777
2018-05-31T22:29:23.851Z,100772
2018-05-31T22:31:52.767Z,100771
2018-05-31T22:34:20.928Z,100768
2018-05-31T22:36:49.108Z,100764
2018-05-31T22:39:17.272Z,100766
2018-05-31T22:41:45.464Z,100762
2018-05-31T22:44:13.612Z,100762
2018-05-31T22:46:42.521Z,100769
2018-05-31T22:49:10.673Z,100761
2018-05-31T22:51:42.482Z,100765
2018-05-31T22:54:10.694Z,100761
2018-05-31T22:56:41.149Z,100620
2018-05-31T22:59:09.346Z,100765
2018-05-31T23:01:37.577Z,100774
2018-05-31T23:04:08.892Z,100779
2018-05-31T23:06:37.875Z,100777
2018-05-31T23:09:06.054Z,100785
2018-05-31T23:11:34.195Z,100787
2018-05-31T23:14:02.377Z,100785
2018-05-31T23:16:30.595Z,100778
2018-05-31T23:18:58.743Z,100784
2018-05-31T23:21:27.685Z,100788
2018-05-31T23:23:55.861Z,100785
2018-05-31T23:26:24.034Z,100788
2018-05-31T23:28:52.208Z,100781
2018-05-31T23:31:20.408Z,100793
2018-05-31T23:33:48.598Z,100783
2018-05-31T23:36:16.801Z,100795
2018-05-31T23:38:44.963Z,100795
2018-05-31T23:41:13.132Z,100797
2018-05-31T23:43:41.344Z,100803
2018-05-31T23:46:09.552Z,100798
2018-05-31T23:48:37.707Z,100802
2018-05-31T23:51:05.875Z,100806
2018-05-31T23:53:34.038Z,100794
2018-05-31T23:56:02.298Z,100794
2018-05-31T23:58:31.223Z,100801
